sensor_id;sensor_type;location;lat;lon;timestamp;P1;durP1;ratioP1;P2;durP2;ratioP2
10450;SDS011;5273;51.290;6.918;2022-09-16T00:00:52;5.10;;;1.42;;
10450;SDS011;5273;51.290;6.918;2022-09-16T00:03:19;3.13;;;1.53;;
10450;SDS011;5273;51.290;6.918;2022-09-16T00:05:47;5.38;;;1.50;;
10450;SDS011;5273;51.290;6.918;2022-09-16T00:08:15;2.10;;;1.23;;
10450;SDS011;5273;51.290;6.918;2022-09-16T00:10:44;5.30;;;1.30;;
10450;SDS011;5273;51.290;6.918;2022-09-16T00:13:11;3.97;;;1.30;;
10450;SDS011;5273;51.290;6.918;2022-09-16T00:15:40;5.13;;;1.48;;
10450;SDS011;5273;51.290;6.918;2022-09-16T00:18:08;3.92;;;1.38;;
10450;SDS011;5273;51.290;6.918;2022-09-16T00:20:36;3.63;;;1.50;;
10450;SDS011;5273;51.290;6.918;2022-09-16T00:23:03;3.60;;;1.30;;
10450;SDS011;5273;51.290;6.918;2022-09-16T00:25:31;2.78;;;1.40;;
10450;SDS011;5273;51.290;6.918;2022-09-16T00:27:59;2.55;;;1.58;;
10450;SDS011;5273;51.290;6.918;2022-09-16T00:30:26;2.60;;;1.30;;
10450;SDS011;5273;51.290;6.918;2022-09-16T00:32:53;5.13;;;1.20;;
10450;SDS011;5273;51.290;6.918;2022-09-16T00:35:20;4.78;;;1.10;;
10450;SDS011;5273;51.290;6.918;2022-09-16T00:37:47;6.18;;;1.40;;
10450;SDS011;5273;51.290;6.918;2022-09-16T00:40:14;3.72;;;1.35;;
10450;SDS011;5273;51.290;6.918;2022-09-16T00:42:41;6.65;;;1.42;;
10450;SDS011;5273;51.290;6.918;2022-09-16T00:45:14;4.38;;;1.75;;
10450;SDS011;5273;51.290;6.918;2022-09-16T00:47:43;5.30;;;1.52;;
10450;SDS011;5273;51.290;6.918;2022-09-16T00:50:16;3.43;;;1.07;;
10450;SDS011;5273;51.290;6.918;2022-09-16T00:52:46;3.58;;;1.30;;
10450;SDS011;5273;51.290;6.918;2022-09-16T00:55:15;1.93;;;1.13;;
10450;SDS011;5273;51.290;6.918;2022-09-16T00:57:45;4.65;;;1.13;;
10450;SDS011;5273;51.290;6.918;2022-09-16T01:00:14;3.47;;;1.30;;
10450;SDS011;5273;51.290;6.918;2022-09-16T01:02:41;6.23;;;1.07;;
10450;SDS011;5273;51.290;6.918;2022-09-16T01:05:10;4.65;;;1.13;;
10450;SDS011;5273;51.290;6.918;2022-09-16T01:07:41;3.47;;;1.35;;
10450;SDS011;5273;51.290;6.918;2022-09-16T01:10:10;4.00;;;1.20;;
10450;SDS011;5273;51.290;6.918;2022-09-16T01:12:37;2.70;;;1.17;;
10450;SDS011;5273;51.290;6.918;2022-09-16T01:15:06;3.25;;;1.15;;
10450;SDS011;5273;51.290;6.918;2022-09-16T01:17:48;4.97;;;1.20;;
10450;SDS011;5273;51.290;6.918;2022-09-16T01:20:45;5.00;;;1.05;;
10450;SDS011;5273;51.290;6.918;2022-09-16T01:23:40;6.50;;;1.00;;
10450;SDS011;5273;51.290;6.918;2022-09-16T01:26:46;4.95;;;1.30;;
10450;SDS011;5273;51.290;6.918;2022-09-16T01:29:37;4.93;;;1.30;;
10450;SDS011;5273;51.290;6.918;2022-09-16T01:32:17;3.60;;;1.48;;
10450;SDS011;5273;51.290;6.918;2022-09-16T01:34:53;3.22;;;1.10;;
10450;SDS011;5273;51.290;6.918;2022-09-16T01:37:31;2.23;;;0.73;;
10450;SDS011;5273;51.290;6.918;2022-09-16T01:40:06;4.13;;;1.25;;
10450;SDS011;5273;51.290;6.918;2022-09-16T01:42:39;1.95;;;1.17;;
10450;SDS011;5273;51.290;6.918;2022-09-16T01:45:15;2.58;;;1.10;;
10450;SDS011;5273;51.290;6.918;2022-09-16T01:47:48;6.50;;;1.40;;
10450;SDS011;5273;51.290;6.918;2022-09-16T01:50:21;1.80;;;1.50;;
10450;SDS011;5273;51.290;6.918;2022-09-16T01:52:53;3.65;;;1.02;;
10450;SDS011;5273;51.290;6.918;2022-09-16T01:55:27;6.82;;;1.20;;
10450;SDS011;5273;51.290;6.918;2022-09-16T01:57:58;2.92;;;0.98;;
10450;SDS011;5273;51.290;6.918;2022-09-16T02:00:30;1.65;;;0.80;;
10450;SDS011;5273;51.290;6.918;2022-09-16T02:02:59;4.67;;;1.23;;
10450;SDS011;5273;51.290;6.918;2022-09-16T02:05:30;2.97;;;1.17;;
10450;SDS011;5273;51.290;6.918;2022-09-16T02:08:03;6.13;;;1.40;;
10450;SDS011;5273;51.290;6.918;2022-09-16T02:10:36;7.35;;;1.35;;
10450;SDS011;5273;51.290;6.918;2022-09-16T02:13:07;3.92;;;1.10;;
10450;SDS011;5273;51.290;6.918;2022-09-16T02:15:39;4.97;;;1.20;;
10450;SDS011;5273;51.290;6.918;2022-09-16T02:18:10;1.17;;;1.05;;
10450;SDS011;5273;51.290;6.918;2022-09-16T02:20:41;3.80;;;0.85;;
10450;SDS011;5273;51.290;6.918;2022-09-16T02:23:12;3.25;;;1.15;;
10450;SDS011;5273;51.290;6.918;2022-09-16T02:25:43;3.63;;;1.10;;
10450;SDS011;5273;51.290;6.918;2022-09-16T02:28:13;6.35;;;1.20;;
10450;SDS011;5273;51.290;6.918;2022-09-16T02:30:46;3.53;;;1.73;;
10450;SDS011;5273;51.290;6.918;2022-09-16T02:33:17;4.78;;;1.25;;
10450;SDS011;5273;51.290;6.918;2022-09-16T02:35:46;4.53;;;1.23;;
10450;SDS011;5273;51.290;6.918;2022-09-16T02:38:18;2.65;;;1.30;;
10450;SDS011;5273;51.290;6.918;2022-09-16T02:40:49;5.00;;;1.73;;
10450;SDS011;5273;51.290;6.918;2022-09-16T02:43:19;3.97;;;1.38;;
10450;SDS011;5273;51.290;6.918;2022-09-16T02:45:47;8.00;;;1.33;;
10450;SDS011;5273;51.290;6.918;2022-09-16T02:48:24;4.77;;;1.50;;
10450;SDS011;5273;51.290;6.918;2022-09-16T02:50:59;4.40;;;1.20;;
10450;SDS011;5273;51.290;6.918;2022-09-16T02:53:32;5.90;;;1.67;;
10450;SDS011;5273;51.290;6.918;2022-09-16T02:56:07;3.33;;;1.53;;
10450;SDS011;5273;51.290;6.918;2022-09-16T02:58:38;4.97;;;1.73;;
10450;SDS011;5273;51.290;6.918;2022-09-16T03:01:06;5.00;;;1.67;;
10450;SDS011;5273;51.290;6.918;2022-09-16T03:03:35;6.97;;;1.30;;
10450;SDS011;5273;51.290;6.918;2022-09-16T03:06:09;5.10;;;1.40;;
10450;SDS011;5273;51.290;6.918;2022-09-16T03:08:45;1.50;;;1.13;;
10450;SDS011;5273;51.290;6.918;2022-09-16T03:11:17;5.68;;;1.65;;
10450;SDS011;5273;51.290;6.918;2022-09-16T03:14:00;5.90;;;1.70;;
10450;SDS011;5273;51.290;6.918;2022-09-16T03:16:40;2.35;;;1.17;;
10450;SDS011;5273;51.290;6.918;2022-09-16T03:19:18;4.20;;;1.50;;
10450;SDS011;5273;51.290;6.918;2022-09-16T03:21:51;5.22;;;1.50;;
10450;SDS011;5273;51.290;6.918;2022-09-16T03:24:25;7.35;;;1.40;;
10450;SDS011;5273;51.290;6.918;2022-09-16T03:27:02;4.10;;;1.20;;
10450;SDS011;5273;51.290;6.918;2022-09-16T03:29:34;4.93;;;1.60;;
10450;SDS011;5273;51.290;6.918;2022-09-16T03:32:04;1.77;;;1.15;;
10450;SDS011;5273;51.290;6.918;2022-09-16T03:34:40;6.28;;;1.20;;
10450;SDS011;5273;51.290;6.918;2022-09-16T03:37:12;4.93;;;1.50;;
10450;SDS011;5273;51.290;6.918;2022-09-16T03:39:43;4.10;;;1.37;;
10450;SDS011;5273;51.290;6.918;2022-09-16T03:42:15;7.00;;;1.40;;
10450;SDS011;5273;51.290;6.918;2022-09-16T03:44:42;3.23;;;1.30;;
10450;SDS011;5273;51.290;6.918;2022-09-16T03:47:09;4.03;;;1.73;;
10450;SDS011;5273;51.290;6.918;2022-09-16T03:49:37;3.75;;;1.65;;
10450;SDS011;5273;51.290;6.918;2022-09-16T03:52:05;4.83;;;1.80;;
10450;SDS011;5273;51.290;6.918;2022-09-16T03:54:32;5.50;;;1.73;;
10450;SDS011;5273;51.290;6.918;2022-09-16T03:56:59;6.22;;;1.63;;
10450;SDS011;5273;51.290;6.918;2022-09-16T03:59:27;3.20;;;1.40;;
10450;SDS011;5273;51.290;6.918;2022-09-16T04:01:54;3.13;;;1.42;;
10450;SDS011;5273;51.290;6.918;2022-09-16T04:04:21;4.28;;;1.70;;
10450;SDS011;5273;51.290;6.918;2022-09-16T04:06:47;4.15;;;1.30;;
10450;SDS011;5273;51.290;6.918;2022-09-16T04:09:16;5.03;;;1.95;;
10450;SDS011;5273;51.290;6.918;2022-09-16T04:11:42;6.63;;;2.00;;
10450;SDS011;5273;51.290;6.918;2022-09-16T04:14:09;4.45;;;1.60;;
10450;SDS011;5273;51.290;6.918;2022-09-16T04:16:37;6.70;;;1.60;;
10450;SDS011;5273;51.290;6.918;2022-09-16T04:19:04;4.10;;;1.90;;
10450;SDS011;5273;51.290;6.918;2022-09-16T04:21:31;8.80;;;1.90;;
10450;SDS011;5273;51.290;6.918;2022-09-16T04:23:58;7.50;;;2.13;;
10450;SDS011;5273;51.290;6.918;2022-09-16T04:26:27;8.43;;;2.13;;
10450;SDS011;5273;51.290;6.918;2022-09-16T04:28:53;6.20;;;1.93;;
10450;SDS011;5273;51.290;6.918;2022-09-16T04:31:21;7.40;;;1.93;;
10450;SDS011;5273;51.290;6.918;2022-09-16T04:33:48;6.90;;;2.10;;
10450;SDS011;5273;51.290;6.918;2022-09-16T04:36:16;6.87;;;2.10;;
10450;SDS011;5273;51.290;6.918;2022-09-16T04:38:44;5.77;;;2.00;;
10450;SDS011;5273;51.290;6.918;2022-09-16T04:41:12;7.87;;;1.90;;
10450;SDS011;5273;51.290;6.918;2022-09-16T04:43:43;4.23;;;1.80;;
10450;SDS011;5273;51.290;6.918;2022-09-16T04:46:09;7.23;;;2.27;;
10450;SDS011;5273;51.290;6.918;2022-09-16T04:48:37;9.45;;;2.20;;
10450;SDS011;5273;51.290;6.918;2022-09-16T04:51:05;6.73;;;2.53;;
10450;SDS011;5273;51.290;6.918;2022-09-16T04:53:33;5.87;;;2.63;;
10450;SDS011;5273;51.290;6.918;2022-09-16T04:56:02;7.03;;;2.70;;
10450;SDS011;5273;51.290;6.918;2022-09-16T04:58:30;6.97;;;2.70;;
10450;SDS011;5273;51.290;6.918;2022-09-16T05:01:03;9.20;;;3.00;;
10450;SDS011;5273;51.290;6.918;2022-09-16T05:03:31;7.37;;;2.90;;
10450;SDS011;5273;51.290;6.918;2022-09-16T05:06:05;6.27;;;2.70;;
10450;SDS011;5273;51.290;6.918;2022-09-16T05:08:33;5.50;;;2.40;;
10450;SDS011;5273;51.290;6.918;2022-09-16T05:11:04;4.30;;;2.77;;
10450;SDS011;5273;51.290;6.918;2022-09-16T05:13:32;6.07;;;2.60;;
10450;SDS011;5273;51.290;6.918;2022-09-16T05:16:00;6.30;;;2.50;;
10450;SDS011;5273;51.290;6.918;2022-09-16T05:18:32;5.43;;;2.87;;
10450;SDS011;5273;51.290;6.918;2022-09-16T05:20:59;5.70;;;2.13;;
10450;SDS011;5273;51.290;6.918;2022-09-16T05:23:27;5.20;;;2.30;;
10450;SDS011;5273;51.290;6.918;2022-09-16T05:25:54;3.47;;;2.20;;
10450;SDS011;5273;51.290;6.918;2022-09-16T05:28:21;6.33;;;2.50;;
10450;SDS011;5273;51.290;6.918;2022-09-16T05:30:48;9.20;;;3.10;;
10450;SDS011;5273;51.290;6.918;2022-09-16T05:33:17;3.77;;;2.00;;
10450;SDS011;5273;51.290;6.918;2022-09-16T05:35:43;10.70;;;2.40;;
10450;SDS011;5273;51.290;6.918;2022-09-16T05:38:11;11.57;;;2.50;;
10450;SDS011;5273;51.290;6.918;2022-09-16T05:40:38;7.60;;;2.90;;
10450;SDS011;5273;51.290;6.918;2022-09-16T05:43:05;6.65;;;2.70;;
10450;SDS011;5273;51.290;6.918;2022-09-16T05:45:32;4.83;;;2.53;;
10450;SDS011;5273;51.290;6.918;2022-09-16T05:47:59;8.23;;;3.00;;
10450;SDS011;5273;51.290;6.918;2022-09-16T05:50:28;6.53;;;2.50;;
10450;SDS011;5273;51.290;6.918;2022-09-16T05:52:55;8.13;;;2.90;;
10450;SDS011;5273;51.290;6.918;2022-09-16T05:55:22;8.27;;;2.80;;
10450;SDS011;5273;51.290;6.918;2022-09-16T05:57:50;6.57;;;2.80;;
10450;SDS011;5273;51.290;6.918;2022-09-16T06:00:17;9.35;;;2.40;;
10450;SDS011;5273;51.290;6.918;2022-09-16T06:02:45;6.73;;;2.87;;
10450;SDS011;5273;51.290;6.918;2022-09-16T06:05:13;5.73;;;2.70;;
10450;SDS011;5273;51.290;6.918;2022-09-16T06:07:42;5.72;;;2.60;;
10450;SDS011;5273;51.290;6.918;2022-09-16T06:10:08;6.30;;;2.70;;
10450;SDS011;5273;51.290;6.918;2022-09-16T06:12:35;4.30;;;2.40;;
10450;SDS011;5273;51.290;6.918;2022-09-16T06:15:03;7.90;;;2.92;;
10450;SDS011;5273;51.290;6.918;2022-09-16T06:17:31;5.07;;;2.30;;
10450;SDS011;5273;51.290;6.918;2022-09-16T06:19:58;7.30;;;2.70;;
10450;SDS011;5273;51.290;6.918;2022-09-16T06:22:28;8.50;;;2.65;;
10450;SDS011;5273;51.290;6.918;2022-09-16T06:24:57;5.78;;;2.53;;
10450;SDS011;5273;51.290;6.918;2022-09-16T06:27:23;5.63;;;2.40;;
10450;SDS011;5273;51.290;6.918;2022-09-16T06:29:51;6.80;;;2.38;;
10450;SDS011;5273;51.290;6.918;2022-09-16T06:32:18;5.55;;;2.30;;
10450;SDS011;5273;51.290;6.918;2022-09-16T06:34:45;3.03;;;2.15;;
10450;SDS011;5273;51.290;6.918;2022-09-16T06:37:12;4.25;;;2.53;;
10450;SDS011;5273;51.290;6.918;2022-09-16T06:39:39;7.38;;;2.83;;
10450;SDS011;5273;51.290;6.918;2022-09-16T06:42:07;7.65;;;2.35;;
10450;SDS011;5273;51.290;6.918;2022-09-16T06:44:34;7.65;;;2.30;;
10450;SDS011;5273;51.290;6.918;2022-09-16T06:47:01;5.10;;;2.15;;
10450;SDS011;5273;51.290;6.918;2022-09-16T06:49:28;5.50;;;2.55;;
10450;SDS011;5273;51.290;6.918;2022-09-16T06:51:56;5.77;;;1.90;;
10450;SDS011;5273;51.290;6.918;2022-09-16T06:54:23;5.55;;;2.55;;
10450;SDS011;5273;51.290;6.918;2022-09-16T06:56:50;4.30;;;2.10;;
10450;SDS011;5273;51.290;6.918;2022-09-16T06:59:18;2.65;;;2.20;;
10450;SDS011;5273;51.290;6.918;2022-09-16T07:01:45;5.47;;;2.30;;
10450;SDS011;5273;51.290;6.918;2022-09-16T07:04:12;6.75;;;1.83;;
10450;SDS011;5273;51.290;6.918;2022-09-16T07:06:39;6.13;;;2.30;;
10450;SDS011;5273;51.290;6.918;2022-09-16T07:09:06;5.57;;;1.95;;
10450;SDS011;5273;51.290;6.918;2022-09-16T07:11:34;5.57;;;2.08;;
10450;SDS011;5273;51.290;6.918;2022-09-16T07:14:01;6.30;;;2.67;;
10450;SDS011;5273;51.290;6.918;2022-09-16T07:16:30;5.15;;;1.73;;
10450;SDS011;5273;51.290;6.918;2022-09-16T07:18:57;5.57;;;1.77;;
10450;SDS011;5273;51.290;6.918;2022-09-16T07:21:25;4.03;;;1.80;;
10450;SDS011;5273;51.290;6.918;2022-09-16T07:23:54;4.22;;;2.13;;
10450;SDS011;5273;51.290;6.918;2022-09-16T07:26:22;8.15;;;2.10;;
10450;SDS011;5273;51.290;6.918;2022-09-16T07:28:51;4.55;;;1.95;;
10450;SDS011;5273;51.290;6.918;2022-09-16T07:31:19;4.55;;;2.13;;
10450;SDS011;5273;51.290;6.918;2022-09-16T07:33:50;3.72;;;1.88;;
10450;SDS011;5273;51.290;6.918;2022-09-16T07:36:18;2.40;;;1.52;;
10450;SDS011;5273;51.290;6.918;2022-09-16T07:38:46;3.55;;;1.75;;
10450;SDS011;5273;51.290;6.918;2022-09-16T07:41:15;5.35;;;1.80;;
10450;SDS011;5273;51.290;6.918;2022-09-16T07:43:43;4.72;;;1.95;;
10450;SDS011;5273;51.290;6.918;2022-09-16T07:46:11;2.90;;;2.10;;
10450;SDS011;5273;51.290;6.918;2022-09-16T07:48:40;4.25;;;1.77;;
10450;SDS011;5273;51.290;6.918;2022-09-16T07:51:09;2.92;;;1.70;;
10450;SDS011;5273;51.290;6.918;2022-09-16T07:53:38;3.83;;;1.80;;
10450;SDS011;5273;51.290;6.918;2022-09-16T07:56:07;2.92;;;1.80;;
10450;SDS011;5273;51.290;6.918;2022-09-16T07:58:36;2.35;;;1.20;;
10450;SDS011;5273;51.290;6.918;2022-09-16T08:01:03;3.67;;;1.20;;
10450;SDS011;5273;51.290;6.918;2022-09-16T08:03:31;2.15;;;1.52;;
10450;SDS011;5273;51.290;6.918;2022-09-16T08:05:59;5.85;;;1.90;;
10450;SDS011;5273;51.290;6.918;2022-09-16T08:08:29;2.10;;;1.40;;
10450;SDS011;5273;51.290;6.918;2022-09-16T08:10:56;4.47;;;1.80;;
10450;SDS011;5273;51.290;6.918;2022-09-16T08:13:24;3.80;;;2.53;;
10450;SDS011;5273;51.290;6.918;2022-09-16T08:15:53;4.35;;;1.73;;
10450;SDS011;5273;51.290;6.918;2022-09-16T08:18:20;4.13;;;1.90;;
10450;SDS011;5273;51.290;6.918;2022-09-16T08:20:47;4.22;;;1.48;;
10450;SDS011;5273;51.290;6.918;2022-09-16T08:23:14;6.53;;;2.08;;
10450;SDS011;5273;51.290;6.918;2022-09-16T08:25:43;2.88;;;1.83;;
10450;SDS011;5273;51.290;6.918;2022-09-16T08:28:11;5.80;;;2.25;;
10450;SDS011;5273;51.290;6.918;2022-09-16T08:30:38;4.30;;;1.80;;
10450;SDS011;5273;51.290;6.918;2022-09-16T08:33:06;3.33;;;1.95;;
10450;SDS011;5273;51.290;6.918;2022-09-16T08:35:32;4.10;;;2.22;;
10450;SDS011;5273;51.290;6.918;2022-09-16T08:37:59;6.60;;;2.15;;
10450;SDS011;5273;51.290;6.918;2022-09-16T08:40:27;3.05;;;1.73;;
10450;SDS011;5273;51.290;6.918;2022-09-16T08:43:01;4.88;;;2.05;;
10450;SDS011;5273;51.290;6.918;2022-09-16T08:45:39;3.80;;;2.28;;
10450;SDS011;5273;51.290;6.918;2022-09-16T08:48:17;3.97;;;2.03;;
10450;SDS011;5273;51.290;6.918;2022-09-16T08:50:53;3.97;;;1.90;;
10450;SDS011;5273;51.290;6.918;2022-09-16T08:53:25;5.47;;;2.20;;
10450;SDS011;5273;51.290;6.918;2022-09-16T08:56:00;5.75;;;2.30;;
10450;SDS011;5273;51.290;6.918;2022-09-16T08:58:34;5.20;;;2.38;;
10450;SDS011;5273;51.290;6.918;2022-09-16T09:01:09;4.78;;;1.58;;
10450;SDS011;5273;51.290;6.918;2022-09-16T09:03:41;3.60;;;1.73;;
10450;SDS011;5273;51.290;6.918;2022-09-16T09:06:13;4.65;;;1.52;;
10450;SDS011;5273;51.290;6.918;2022-09-16T09:08:49;4.22;;;1.40;;
10450;SDS011;5273;51.290;6.918;2022-09-16T09:11:24;4.18;;;1.20;;
10450;SDS011;5273;51.290;6.918;2022-09-16T09:16:59;5.25;;;2.00;;
10450;SDS011;5273;51.290;6.918;2022-09-16T09:19:34;4.07;;;1.85;;
10450;SDS011;5273;51.290;6.918;2022-09-16T09:22:18;2.88;;;1.45;;
10450;SDS011;5273;51.290;6.918;2022-09-16T09:24:56;1.92;;;1.02;;
10450;SDS011;5273;51.290;6.918;2022-09-16T09:27:35;4.55;;;1.80;;
10450;SDS011;5273;51.290;6.918;2022-09-16T09:30:11;7.18;;;1.73;;
10450;SDS011;5273;51.290;6.918;2022-09-16T09:32:50;2.03;;;1.70;;
10450;SDS011;5273;51.290;6.918;2022-09-16T09:35:32;2.75;;;1.35;;
10450;SDS011;5273;51.290;6.918;2022-09-16T09:38:17;4.00;;;1.65;;
10450;SDS011;5273;51.290;6.918;2022-09-16T09:41:02;2.30;;;1.30;;
10450;SDS011;5273;51.290;6.918;2022-09-16T09:43:33;3.13;;;1.33;;
10450;SDS011;5273;51.290;6.918;2022-09-16T09:46:07;2.83;;;1.10;;
10450;SDS011;5273;51.290;6.918;2022-09-16T09:48:38;7.50;;;2.05;;
10450;SDS011;5273;51.290;6.918;2022-09-16T09:51:14;6.90;;;1.35;;
10450;SDS011;5273;51.290;6.918;2022-09-16T09:53:48;3.92;;;1.45;;
10450;SDS011;5273;51.290;6.918;2022-09-16T09:56:18;3.70;;;1.17;;
10450;SDS011;5273;51.290;6.918;2022-09-16T09:58:50;2.42;;;1.02;;
10450;SDS011;5273;51.290;6.918;2022-09-16T10:01:25;2.10;;;1.00;;
10450;SDS011;5273;51.290;6.918;2022-09-16T10:03:51;0.80;;;0.80;;
10450;SDS011;5273;51.290;6.918;2022-09-16T10:06:22;3.70;;;1.40;;
10450;SDS011;5273;51.290;6.918;2022-09-16T10:08:53;2.38;;;1.20;;
10450;SDS011;5273;51.290;6.918;2022-09-16T10:11:23;3.63;;;1.20;;
10450;SDS011;5273;51.290;6.918;2022-09-16T10:13:52;4.70;;;1.10;;
10450;SDS011;5273;51.290;6.918;2022-09-16T10:16:25;2.50;;;0.88;;
10450;SDS011;5273;51.290;6.918;2022-09-16T10:18:55;2.50;;;0.95;;
10450;SDS011;5273;51.290;6.918;2022-09-16T10:21:35;1.85;;;1.00;;
10450;SDS011;5273;51.290;6.918;2022-09-16T10:24:18;2.53;;;0.88;;
10450;SDS011;5273;51.290;6.918;2022-09-16T10:26:54;2.65;;;0.98;;
10450;SDS011;5273;51.290;6.918;2022-09-16T10:29:21;1.90;;;0.80;;
10450;SDS011;5273;51.290;6.918;2022-09-16T10:31:49;3.00;;;1.13;;
10450;SDS011;5273;51.290;6.918;2022-09-16T10:34:25;5.60;;;1.35;;
10450;SDS011;5273;51.290;6.918;2022-09-16T10:36:58;3.40;;;1.15;;
10450;SDS011;5273;51.290;6.918;2022-09-16T10:39:26;3.33;;;1.20;;
10450;SDS011;5273;51.290;6.918;2022-09-16T10:41:54;3.10;;;1.13;;
10450;SDS011;5273;51.290;6.918;2022-09-16T10:44:22;2.60;;;1.17;;
10450;SDS011;5273;51.290;6.918;2022-09-16T10:46:54;1.90;;;0.80;;
10450;SDS011;5273;51.290;6.918;2022-09-16T10:49:25;2.63;;;1.00;;
10450;SDS011;5273;51.290;6.918;2022-09-16T10:52:06;2.97;;;1.23;;
10450;SDS011;5273;51.290;6.918;2022-09-16T10:54:42;3.13;;;1.20;;
10450;SDS011;5273;51.290;6.918;2022-09-16T10:57:25;2.75;;;0.85;;
10450;SDS011;5273;51.290;6.918;2022-09-16T10:59:58;2.75;;;1.10;;
10450;SDS011;5273;51.290;6.918;2022-09-16T11:02:32;1.88;;;0.90;;
10450;SDS011;5273;51.290;6.918;2022-09-16T11:05:21;2.67;;;1.13;;
10450;SDS011;5273;51.290;6.918;2022-09-16T11:07:55;4.57;;;1.08;;
10450;SDS011;5273;51.290;6.918;2022-09-16T11:10:32;4.00;;;1.10;;
10450;SDS011;5273;51.290;6.918;2022-09-16T11:13:13;4.00;;;1.10;;
10450;SDS011;5273;51.290;6.918;2022-09-16T11:15:53;4.72;;;1.10;;
10450;SDS011;5273;51.290;6.918;2022-09-16T11:18:34;1.52;;;0.90;;
10450;SDS011;5273;51.290;6.918;2022-09-16T11:21:13;0.93;;;0.90;;
10450;SDS011;5273;51.290;6.918;2022-09-16T11:23:54;3.92;;;1.50;;
10450;SDS011;5273;51.290;6.918;2022-09-16T11:26:43;4.30;;;1.40;;
10450;SDS011;5273;51.290;6.918;2022-09-16T11:29:20;6.80;;;1.88;;
10450;SDS011;5273;51.290;6.918;2022-09-16T11:32:05;11.52;;;2.30;;
10450;SDS011;5273;51.290;6.918;2022-09-16T11:34:45;5.07;;;1.27;;
10450;SDS011;5273;51.290;6.918;2022-09-16T11:37:21;4.15;;;1.38;;
10450;SDS011;5273;51.290;6.918;2022-09-16T11:39:56;2.80;;;1.50;;
10450;SDS011;5273;51.290;6.918;2022-09-16T11:42:33;3.28;;;1.48;;
10450;SDS011;5273;51.290;6.918;2022-09-16T11:45:06;6.13;;;1.80;;
10450;SDS011;5273;51.290;6.918;2022-09-16T11:47:53;5.60;;;1.77;;
10450;SDS011;5273;51.290;6.918;2022-09-16T11:50:34;2.95;;;1.45;;
10450;SDS011;5273;51.290;6.918;2022-09-16T11:53:17;1.77;;;1.35;;
10450;SDS011;5273;51.290;6.918;2022-09-16T11:56:04;2.38;;;1.58;;
10450;SDS011;5273;51.290;6.918;2022-09-16T11:58:37;3.67;;;1.27;;
10450;SDS011;5273;51.290;6.918;2022-09-16T12:01:12;2.35;;;1.20;;
10450;SDS011;5273;51.290;6.918;2022-09-16T12:03:45;1.67;;;0.88;;
10450;SDS011;5273;51.290;6.918;2022-09-16T12:06:20;2.75;;;0.93;;
10450;SDS011;5273;51.290;6.918;2022-09-16T12:08:52;0.95;;;0.85;;
10450;SDS011;5273;51.290;6.918;2022-09-16T12:11:23;3.70;;;1.10;;
10450;SDS011;5273;51.290;6.918;2022-09-16T12:13:57;2.50;;;1.05;;
10450;SDS011;5273;51.290;6.918;2022-09-16T12:16:32;3.75;;;1.48;;
10450;SDS011;5273;51.290;6.918;2022-09-16T12:21:50;2.40;;;1.67;;
10450;SDS011;5273;51.290;6.918;2022-09-16T12:24:22;4.07;;;1.30;;
10450;SDS011;5273;51.290;6.918;2022-09-16T12:27:02;2.00;;;1.00;;
10450;SDS011;5273;51.290;6.918;2022-09-16T12:29:33;3.38;;;1.13;;
10450;SDS011;5273;51.290;6.918;2022-09-16T12:32:07;1.52;;;1.00;;
10450;SDS011;5273;51.290;6.918;2022-09-16T12:34:38;2.47;;;0.57;;
10450;SDS011;5273;51.290;6.918;2022-09-16T12:37:14;0.85;;;0.60;;
10450;SDS011;5273;51.290;6.918;2022-09-16T12:39:49;0.77;;;0.60;;
10450;SDS011;5273;51.290;6.918;2022-09-16T12:45:30;1.13;;;0.57;;
10450;SDS011;5273;51.290;6.918;2022-09-16T12:48:22;0.50;;;0.40;;
10450;SDS011;5273;51.290;6.918;2022-09-16T12:50:59;1.13;;;0.47;;
10450;SDS011;5273;51.290;6.918;2022-09-16T12:56:39;1.40;;;0.73;;
10450;SDS011;5273;51.290;6.918;2022-09-16T12:59:17;0.85;;;0.85;;
10450;SDS011;5273;51.290;6.918;2022-09-16T13:02:03;2.33;;;1.00;;
10450;SDS011;5273;51.290;6.918;2022-09-16T13:04:38;1.05;;;0.70;;
10450;SDS011;5273;51.290;6.918;2022-09-16T13:07:15;1.55;;;0.73;;
10450;SDS011;5273;51.290;6.918;2022-09-16T13:09:48;3.42;;;0.80;;
10450;SDS011;5273;51.290;6.918;2022-09-16T13:12:25;3.50;;;0.88;;
10450;SDS011;5273;51.290;6.918;2022-09-16T13:14:53;2.50;;;0.52;;
10450;SDS011;5273;51.290;6.918;2022-09-16T13:17:26;0.95;;;0.73;;
10450;SDS011;5273;51.290;6.918;2022-09-16T13:19:54;2.47;;;0.77;;
10450;SDS011;5273;51.290;6.918;2022-09-16T13:22:28;3.60;;;0.93;;
10450;SDS011;5273;51.290;6.918;2022-09-16T13:25:10;1.77;;;0.88;;
10450;SDS011;5273;51.290;6.918;2022-09-16T13:27:57;2.35;;;0.73;;
10450;SDS011;5273;51.290;6.918;2022-09-16T13:30:32;5.50;;;0.82;;
10450;SDS011;5273;51.290;6.918;2022-09-16T13:33:02;1.63;;;0.77;;
10450;SDS011;5273;51.290;6.918;2022-09-16T13:35:47;3.00;;;0.88;;
10450;SDS011;5273;51.290;6.918;2022-09-16T13:38:20;1.17;;;0.82;;
10450;SDS011;5273;51.290;6.918;2022-09-16T13:40:54;2.00;;;0.68;;
10450;SDS011;5273;51.290;6.918;2022-09-16T13:43:29;2.25;;;0.63;;
10450;SDS011;5273;51.290;6.918;2022-09-16T13:46:01;2.22;;;0.90;;
10450;SDS011;5273;51.290;6.918;2022-09-16T13:48:40;2.75;;;0.90;;
10450;SDS011;5273;51.290;6.918;2022-09-16T13:51:16;2.50;;;0.80;;
10450;SDS011;5273;51.290;6.918;2022-09-16T13:53:46;1.38;;;0.93;;
10450;SDS011;5273;51.290;6.918;2022-09-16T13:56:23;3.17;;;1.05;;
10450;SDS011;5273;51.290;6.918;2022-09-16T13:59:15;2.88;;;0.93;;
10450;SDS011;5273;51.290;6.918;2022-09-16T14:01:57;4.85;;;1.08;;
10450;SDS011;5273;51.290;6.918;2022-09-16T14:04:36;2.88;;;1.23;;
10450;SDS011;5273;51.290;6.918;2022-09-16T14:07:19;3.75;;;1.40;;
10450;SDS011;5273;51.290;6.918;2022-09-16T14:09:54;3.65;;;1.08;;
10450;SDS011;5273;51.290;6.918;2022-09-16T14:12:28;3.05;;;0.75;;
10450;SDS011;5273;51.290;6.918;2022-09-16T14:15:03;2.15;;;1.02;;
10450;SDS011;5273;51.290;6.918;2022-09-16T14:17:33;3.53;;;1.05;;
10450;SDS011;5273;51.290;6.918;2022-09-16T14:20:05;2.95;;;0.77;;
10450;SDS011;5273;51.290;6.918;2022-09-16T14:22:40;2.63;;;0.75;;
10450;SDS011;5273;51.290;6.918;2022-09-16T14:25:23;2.28;;;0.90;;
10450;SDS011;5273;51.290;6.918;2022-09-16T14:28:04;1.13;;;0.55;;
10450;SDS011;5273;51.290;6.918;2022-09-16T14:30:33;0.80;;;0.70;;
10450;SDS011;5273;51.290;6.918;2022-09-16T14:33:00;2.28;;;0.50;;
10450;SDS011;5273;51.290;6.918;2022-09-16T14:35:28;1.60;;;0.68;;
10450;SDS011;5273;51.290;6.918;2022-09-16T14:37:56;0.98;;;0.47;;
10450;SDS011;5273;51.290;6.918;2022-09-16T14:40:26;0.73;;;0.30;;
10450;SDS011;5273;51.290;6.918;2022-09-16T14:42:56;0.65;;;0.55;;
10450;SDS011;5273;51.290;6.918;2022-09-16T14:45:26;1.75;;;0.77;;
10450;SDS011;5273;51.290;6.918;2022-09-16T14:47:55;1.17;;;0.57;;
10450;SDS011;5273;51.290;6.918;2022-09-16T14:50:24;3.10;;;0.80;;
10450;SDS011;5273;51.290;6.918;2022-09-16T14:52:54;2.33;;;0.73;;
10450;SDS011;5273;51.290;6.918;2022-09-16T14:55:23;1.77;;;0.50;;
10450;SDS011;5273;51.290;6.918;2022-09-16T14:57:52;2.03;;;0.50;;
10450;SDS011;5273;51.290;6.918;2022-09-16T15:00:21;2.95;;;0.98;;
10450;SDS011;5273;51.290;6.918;2022-09-16T15:02:51;2.92;;;0.73;;
10450;SDS011;5273;51.290;6.918;2022-09-16T15:05:22;2.28;;;1.10;;
10450;SDS011;5273;51.290;6.918;2022-09-16T15:07:53;1.83;;;0.70;;
10450;SDS011;5273;51.290;6.918;2022-09-16T15:10:28;0.95;;;0.60;;
10450;SDS011;5273;51.290;6.918;2022-09-16T15:12:56;2.72;;;0.90;;
10450;SDS011;5273;51.290;6.918;2022-09-16T15:15:26;3.22;;;0.90;;
10450;SDS011;5273;51.290;6.918;2022-09-16T15:17:56;2.22;;;1.00;;
10450;SDS011;5273;51.290;6.918;2022-09-16T15:20:25;4.15;;;1.10;;
10450;SDS011;5273;51.290;6.918;2022-09-16T15:22:54;2.78;;;1.10;;
10450;SDS011;5273;51.290;6.918;2022-09-16T15:25:23;3.33;;;1.17;;
10450;SDS011;5273;51.290;6.918;2022-09-16T15:28:01;2.45;;;0.80;;
10450;SDS011;5273;51.290;6.918;2022-09-16T15:30:30;1.05;;;0.95;;
10450;SDS011;5273;51.290;6.918;2022-09-16T15:32:57;3.05;;;0.98;;
10450;SDS011;5273;51.290;6.918;2022-09-16T15:35:25;3.20;;;1.30;;
10450;SDS011;5273;51.290;6.918;2022-09-16T15:37:53;2.58;;;0.90;;
10450;SDS011;5273;51.290;6.918;2022-09-16T15:40:22;1.38;;;0.52;;